sensor_id;sensor_type;location;lat;lon;timestamp;temperature;humidity
8436;DHT22;4255;48.730;9.156;2024-01-16T00:00:33;0.50;1.00
8436;DHT22;4255;48.730;9.156;2024-01-16T00:02:59;0.40;1.00
8436;DHT22;4255;48.730;9.156;2024-01-16T00:05:25;0.30;1.00
8436;DHT22;4255;48.730;9.156;2024-01-16T00:07:50;0.20;1.00
8436;DHT22;4255;48.730;9.156;2024-01-16T00:10:16;0.10;1.00
8436;DHT22;4255;48.730;9.156;2024-01-16T00:12:42;0.00;1.00
8436;DHT22;4255;48.730;9.156;2024-01-16T00:15:08;-0.20;1.00
8436;DHT22;4255;48.730;9.156;2024-01-16T00:17:34;-0.20;1.00
8436;DHT22;4255;48.730;9.156;2024-01-16T00:20:00;0.00;1.00
8436;DHT22;4255;48.730;9.156;2024-01-16T00:22:27;0.00;1.00
8436;DHT22;4255;48.730;9.156;2024-01-16T00:24:53;0.10;1.00
8436;DHT22;4255;48.730;9.156;2024-01-16T00:27:18;0.00;1.00
8436;DHT22;4255;48.730;9.156;2024-01-16T00:29:44;-0.20;1.00
8436;DHT22;4255;48.730;9.156;2024-01-16T00:32:10;-0.50;1.00
8436;DHT22;4255;48.730;9.156;2024-01-16T00:34:35;-0.50;1.00
8436;DHT22;4255;48.730;9.156;2024-01-16T00:37:01;-0.40;1.00
8436;DHT22;4255;48.730;9.156;2024-01-16T00:39:27;-0.60;1.00
8436;DHT22;4255;48.730;9.156;2024-01-16T00:41:52;-0.70;1.00
8436;DHT22;4255;48.730;9.156;2024-01-16T00:44:18;-0.80;1.00
8436;DHT22;4255;48.730;9.156;2024-01-16T00:46:43;-0.70;1.00
8436;DHT22;4255;48.730;9.156;2024-01-16T00:49:09;-0.70;1.00
8436;DHT22;4255;48.730;9.156;2024-01-16T00:51:35;-0.70;1.00
8436;DHT22;4255;48.730;9.156;2024-01-16T00:54:01;-0.60;1.00
8436;DHT22;4255;48.730;9.156;2024-01-16T00:56:26;-0.70;1.00
8436;DHT22;4255;48.730;9.156;2024-01-16T00:58:57;-0.70;1.00
8436;DHT22;4255;48.730;9.156;2024-01-16T01:01:23;-0.80;1.00
8436;DHT22;4255;48.730;9.156;2024-01-16T01:03:48;-0.80;1.00
8436;DHT22;4255;48.730;9.156;2024-01-16T01:06:14;-0.90;1.00
8436;DHT22;4255;48.730;9.156;2024-01-16T01:08:39;-0.80;1.00
8436;DHT22;4255;48.730;9.156;2024-01-16T01:11:05;-0.70;1.00
8436;DHT22;4255;48.730;9.156;2024-01-16T01:13:31;-0.60;1.00
8436;DHT22;4255;48.730;9.156;2024-01-16T01:15:56;-0.70;1.00
8436;DHT22;4255;48.730;9.156;2024-01-16T01:18:22;-0.70;1.00
8436;DHT22;4255;48.730;9.156;2024-01-16T01:20:48;-0.60;1.00
8436;DHT22;4255;48.730;9.156;2024-01-16T01:23:13;-0.50;1.00
8436;DHT22;4255;48.730;9.156;2024-01-16T01:25:39;-0.40;1.00
8436;DHT22;4255;48.730;9.156;2024-01-16T01:28:05;-0.50;1.00
8436;DHT22;4255;48.730;9.156;2024-01-16T01:30:31;-0.50;1.00
8436;DHT22;4255;48.730;9.156;2024-01-16T01:32:57;-0.40;1.00
8436;DHT22;4255;48.730;9.156;2024-01-16T01:35:23;-0.40;1.00
8436;DHT22;4255;48.730;9.156;2024-01-16T01:37:49;-0.30;1.00
8436;DHT22;4255;48.730;9.156;2024-01-16T01:40:14;-0.30;1.00
8436;DHT22;4255;48.730;9.156;2024-01-16T01:42:42;-0.30;1.00
8436;DHT22;4255;48.730;9.156;2024-01-16T01:45:11;-0.30;1.00
8436;DHT22;4255;48.730;9.156;2024-01-16T01:47:39;-0.20;1.00
8436;DHT22;4255;48.730;9.156;2024-01-16T01:50:06;-0.20;1.00
8436;DHT22;4255;48.730;9.156;2024-01-16T01:52:33;-0.10;1.00
8436;DHT22;4255;48.730;9.156;2024-01-16T01:54:59;-0.20;1.00
8436;DHT22;4255;48.730;9.156;2024-01-16T01:57:26;-0.30;1.00
8436;DHT22;4255;48.730;9.156;2024-01-16T01:59:52;-0.20;1.00
8436;DHT22;4255;48.730;9.156;2024-01-16T02:02:17;-0.20;1.00
8436;DHT22;4255;48.730;9.156;2024-01-16T02:04:44;-0.20;1.00
8436;DHT22;4255;48.730;9.156;2024-01-16T02:07:12;-0.10;1.00
8436;DHT22;4255;48.730;9.156;2024-01-16T02:09:37;-0.10;1.00
8436;DHT22;4255;48.730;9.156;2024-01-16T02:12:04;-0.30;1.00
8436;DHT22;4255;48.730;9.156;2024-01-16T02:14:30;-0.30;1.00
8436;DHT22;4255;48.730;9.156;2024-01-16T02:16:56;-0.40;1.00
8436;DHT22;4255;48.730;9.156;2024-01-16T02:19:21;-0.70;1.00
8436;DHT22;4255;48.730;9.156;2024-01-16T02:21:48;-0.70;1.00
8436;DHT22;4255;48.730;9.156;2024-01-16T02:24:17;-0.70;1.00
8436;DHT22;4255;48.730;9.156;2024-01-16T02:26:44;-0.70;1.00
8436;DHT22;4255;48.730;9.156;2024-01-16T02:29:10;-0.70;1.00
8436;DHT22;4255;48.730;9.156;2024-01-16T02:31:35;-0.60;1.00
8436;DHT22;4255;48.730;9.156;2024-01-16T02:34:01;-0.70;1.00
8436;DHT22;4255;48.730;9.156;2024-01-16T02:36:27;-0.70;1.00
8436;DHT22;4255;48.730;9.156;2024-01-16T02:38:54;-0.70;1.00
8436;DHT22;4255;48.730;9.156;2024-01-16T02:41:20;-0.70;1.00
8436;DHT22;4255;48.730;9.156;2024-01-16T02:43:46;-0.60;1.00
8436;DHT22;4255;48.730;9.156;2024-01-16T02:46:12;-0.60;1.00
8436;DHT22;4255;48.730;9.156;2024-01-16T02:48:38;-0.70;1.00
8436;DHT22;4255;48.730;9.156;2024-01-16T02:51:04;-0.60;1.00
8436;DHT22;4255;48.730;9.156;2024-01-16T02:53:31;-0.60;1.00
8436;DHT22;4255;48.730;9.156;2024-01-16T02:55:56;-0.60;1.00
8436;DHT22;4255;48.730;9.156;2024-01-16T02:58:28;-0.60;1.00
8436;DHT22;4255;48.730;9.156;2024-01-16T03:00:54;-0.60;1.00
8436;DHT22;4255;48.730;9.156;2024-01-16T03:03:20;-0.50;1.00
8436;DHT22;4255;48.730;9.156;2024-01-16T03:05:47;-0.40;1.00
8436;DHT22;4255;48.730;9.156;2024-01-16T03:08:13;-0.60;1.00
8436;DHT22;4255;48.730;9.156;2024-01-16T03:10:39;-0.50;1.00
8436;DHT22;4255;48.730;9.156;2024-01-16T03:13:05;-0.60;1.00
8436;DHT22;4255;48.730;9.156;2024-01-16T03:15:30;-0.70;1.00
8436;DHT22;4255;48.730;9.156;2024-01-16T03:17:57;0.40;99.90
8436;DHT22;4255;48.730;9.156;2024-01-16T03:20:23;2.00;99.90
8436;DHT22;4255;48.730;9.156;2024-01-16T03:22:49;1.30;99.90
8436;DHT22;4255;48.730;9.156;2024-01-16T03:25:15;0.40;62.50
8436;DHT22;4255;48.730;9.156;2024-01-16T03:27:41;-0.30;3.00
8436;DHT22;4255;48.730;9.156;2024-01-16T03:30:07;-0.50;1.00
8436;DHT22;4255;48.730;9.156;2024-01-16T03:32:34;-0.70;1.00
8436;DHT22;4255;48.730;9.156;2024-01-16T03:34:59;-0.70;1.00
8436;DHT22;4255;48.730;9.156;2024-01-16T03:37:25;-1.00;1.00
8436;DHT22;4255;48.730;9.156;2024-01-16T03:39:51;-1.00;1.00
8436;DHT22;4255;48.730;9.156;2024-01-16T03:42:16;-1.20;1.00
8436;DHT22;4255;48.730;9.156;2024-01-16T03:44:42;-1.10;1.00
8436;DHT22;4255;48.730;9.156;2024-01-16T03:47:08;-1.10;1.00
8436;DHT22;4255;48.730;9.156;2024-01-16T03:49:34;-1.10;1.00
8436;DHT22;4255;48.730;9.156;2024-01-16T03:52:00;-1.10;1.00
8436;DHT22;4255;48.730;9.156;2024-01-16T03:54:25;-1.10;1.00
8436;DHT22;4255;48.730;9.156;2024-01-16T03:56:51;-1.10;1.00
8436;DHT22;4255;48.730;9.156;2024-01-16T03:59:17;-1.10;1.00
8436;DHT22;4255;48.730;9.156;2024-01-16T04:01:42;-1.00;1.00
8436;DHT22;4255;48.730;9.156;2024-01-16T04:04:10;-1.00;1.00
8436;DHT22;4255;48.730;9.156;2024-01-16T04:06:36;-1.00;1.00
8436;DHT22;4255;48.730;9.156;2024-01-16T04:09:02;-1.00;1.00
8436;DHT22;4255;48.730;9.156;2024-01-16T04:11:28;-1.10;1.00
8436;DHT22;4255;48.730;9.156;2024-01-16T04:13:54;-1.10;1.00
8436;DHT22;4255;48.730;9.156;2024-01-16T04:16:20;-1.10;1.00
8436;DHT22;4255;48.730;9.156;2024-01-16T04:18:45;-0.90;1.00
8436;DHT22;4255;48.730;9.156;2024-01-16T04:21:11;-1.10;1.00
8436;DHT22;4255;48.730;9.156;2024-01-16T04:23:36;-1.20;1.00
8436;DHT22;4255;48.730;9.156;2024-01-16T04:26:02;-1.50;1.00
8436;DHT22;4255;48.730;9.156;2024-01-16T04:28:28;-1.70;1.00
8436;DHT22;4255;48.730;9.156;2024-01-16T04:30:54;-1.80;9.60
8436;DHT22;4255;48.730;9.156;2024-01-16T04:33:19;-1.90;16.70
8436;DHT22;4255;48.730;9.156;2024-01-16T04:35:45;-1.80;10.30
8436;DHT22;4255;48.730;9.156;2024-01-16T04:38:11;-1.70;2.40
8436;DHT22;4255;48.730;9.156;2024-01-16T04:40:36;-1.60;1.00
8436;DHT22;4255;48.730;9.156;2024-01-16T04:43:02;-1.50;1.00
8436;DHT22;4255;48.730;9.156;2024-01-16T04:45:28;-1.40;1.00
8436;DHT22;4255;48.730;9.156;2024-01-16T04:47:54;-1.30;1.00
8436;DHT22;4255;48.730;9.156;2024-01-16T04:50:20;-1.10;1.00
8436;DHT22;4255;48.730;9.156;2024-01-16T04:52:45;-1.00;1.00
8436;DHT22;4255;48.730;9.156;2024-01-16T04:55:11;-0.90;1.00
8436;DHT22;4255;48.730;9.156;2024-01-16T04:57:37;-0.80;1.00
8436;DHT22;4255;48.730;9.156;2024-01-16T05:00:03;-0.80;1.00
8436;DHT22;4255;48.730;9.156;2024-01-16T05:02:33;-0.80;1.00
8436;DHT22;4255;48.730;9.156;2024-01-16T05:04:59;-0.80;1.00
8436;DHT22;4255;48.730;9.156;2024-01-16T05:07:25;-0.80;1.00
8436;DHT22;4255;48.730;9.156;2024-01-16T05:09:51;-0.90;1.00
8436;DHT22;4255;48.730;9.156;2024-01-16T05:12:17;-0.90;1.00
8436;DHT22;4255;48.730;9.156;2024-01-16T05:14:43;-0.90;1.00
8436;DHT22;4255;48.730;9.156;2024-01-16T05:17:08;-1.00;1.00
8436;DHT22;4255;48.730;9.156;2024-01-16T05:19:34;-1.10;1.00
8436;DHT22;4255;48.730;9.156;2024-01-16T05:21:59;-1.10;1.00
8436;DHT22;4255;48.730;9.156;2024-01-16T05:24:25;-1.30;1.00
8436;DHT22;4255;48.730;9.156;2024-01-16T05:26:51;-1.50;1.00
8436;DHT22;4255;48.730;9.156;2024-01-16T05:29:18;-1.40;1.00
8436;DHT22;4255;48.730;9.156;2024-01-16T05:31:44;-1.30;1.00
8436;DHT22;4255;48.730;9.156;2024-01-16T05:34:10;-1.40;1.00
8436;DHT22;4255;48.730;9.156;2024-01-16T05:36:36;-1.40;1.00
8436;DHT22;4255;48.730;9.156;2024-01-16T05:39:01;-1.40;1.00
8436;DHT22;4255;48.730;9.156;2024-01-16T05:41:31;-1.60;1.00
8436;DHT22;4255;48.730;9.156;2024-01-16T05:43:57;-1.70;1.00
8436;DHT22;4255;48.730;9.156;2024-01-16T05:46:23;-1.70;1.00
8436;DHT22;4255;48.730;9.156;2024-01-16T05:48:48;-1.70;1.00
8436;DHT22;4255;48.730;9.156;2024-01-16T05:51:14;-1.80;1.00
8436;DHT22;4255;48.730;9.156;2024-01-16T05:53:39;-1.70;1.00
8436;DHT22;4255;48.730;9.156;2024-01-16T05:56:05;-1.70;1.00
8436;DHT22;4255;48.730;9.156;2024-01-16T05:58:31;-1.70;1.00
8436;DHT22;4255;48.730;9.156;2024-01-16T06:01:00;-1.70;1.00
8436;DHT22;4255;48.730;9.156;2024-01-16T06:03:26;-1.60;1.00
8436;DHT22;4255;48.730;9.156;2024-01-16T06:05:52;-1.70;1.00
8436;DHT22;4255;48.730;9.156;2024-01-16T06:08:17;-1.30;99.90
8436;DHT22;4255;48.730;9.156;2024-01-16T06:10:45;-1.50;99.90
8436;DHT22;4255;48.730;9.156;2024-01-16T06:13:11;-1.50;1.00
8436;DHT22;4255;48.730;9.156;2024-01-16T06:15:36;-1.50;1.00
8436;DHT22;4255;48.730;9.156;2024-01-16T06:18:02;-1.50;1.00
8436;DHT22;4255;48.730;9.156;2024-01-16T06:20:28;-1.50;1.00
8436;DHT22;4255;48.730;9.156;2024-01-16T06:22:54;-1.50;1.00
8436;DHT22;4255;48.730;9.156;2024-01-16T06:25:20;-1.60;1.00
8436;DHT22;4255;48.730;9.156;2024-01-16T06:27:45;-1.70;1.00
8436;DHT22;4255;48.730;9.156;2024-01-16T06:30:11;-1.60;1.00
8436;DHT22;4255;48.730;9.156;2024-01-16T06:32:37;-1.50;1.00
8436;DHT22;4255;48.730;9.156;2024-01-16T06:35:02;-1.30;1.00
8436;DHT22;4255;48.730;9.156;2024-01-16T06:37:28;-1.30;1.00
8436;DHT22;4255;48.730;9.156;2024-01-16T06:39:54;-1.40;1.00
8436;DHT22;4255;48.730;9.156;2024-01-16T06:42:19;-1.50;1.00
8436;DHT22;4255;48.730;9.156;2024-01-16T06:44:45;-1.60;1.00
8436;DHT22;4255;48.730;9.156;2024-01-16T06:47:10;-1.70;1.00
8436;DHT22;4255;48.730;9.156;2024-01-16T06:49:36;-1.70;1.00
8436;DHT22;4255;48.730;9.156;2024-01-16T06:52:02;-1.60;1.00
8436;DHT22;4255;48.730;9.156;2024-01-16T06:54:27;-1.70;1.00
8436;DHT22;4255;48.730;9.156;2024-01-16T06:56:53;-1.60;1.00
8436;DHT22;4255;48.730;9.156;2024-01-16T06:59:19;-1.60;1.00
8436;DHT22;4255;48.730;9.156;2024-01-16T07:01:45;-1.80;1.00
8436;DHT22;4255;48.730;9.156;2024-01-16T07:04:10;-1.80;1.00
8436;DHT22;4255;48.730;9.156;2024-01-16T07:06:36;-1.80;1.00
8436;DHT22;4255;48.730;9.156;2024-01-16T07:09:02;-1.70;1.00
8436;DHT22;4255;48.730;9.156;2024-01-16T07:11:30;-1.50;1.00
8436;DHT22;4255;48.730;9.156;2024-01-16T07:13:56;-1.50;1.00
8436;DHT22;4255;48.730;9.156;2024-01-16T07:16:22;-1.40;1.00
8436;DHT22;4255;48.730;9.156;2024-01-16T07:18:48;-1.50;1.00
8436;DHT22;4255;48.730;9.156;2024-01-16T07:21:19;-1.60;1.00
8436;DHT22;4255;48.730;9.156;2024-01-16T07:23:46;-1.50;1.00
8436;DHT22;4255;48.730;9.156;2024-01-16T07:26:12;-1.60;1.00
8436;DHT22;4255;48.730;9.156;2024-01-16T07:28:37;-1.50;1.00
8436;DHT22;4255;48.730;9.156;2024-01-16T07:31:03;-1.60;1.00
8436;DHT22;4255;48.730;9.156;2024-01-16T07:33:28;-1.50;99.90
8436;DHT22;4255;48.730;9.156;2024-01-16T07:35:54;-1.60;99.90
8436;DHT22;4255;48.730;9.156;2024-01-16T07:38:20;-1.60;99.90
8436;DHT22;4255;48.730;9.156;2024-01-16T07:40:46;-1.60;99.90
8436;DHT22;4255;48.730;9.156;2024-01-16T07:43:11;-1.60;99.90
8436;DHT22;4255;48.730;9.156;2024-01-16T07:45:37;-1.50;99.90
8436;DHT22;4255;48.730;9.156;2024-01-16T07:48:03;-1.40;99.90
8436;DHT22;4255;48.730;9.156;2024-01-16T07:50:29;-1.20;9.10
8436;DHT22;4255;48.730;9.156;2024-01-16T07:52:54;-1.30;1.00
8436;DHT22;4255;48.730;9.156;2024-01-16T07:55:20;-1.30;1.00
8436;DHT22;4255;48.730;9.156;2024-01-16T07:57:45;-1.50;1.00
8436;DHT22;4255;48.730;9.156;2024-01-16T08:00:11;-1.50;1.00
8436;DHT22;4255;48.730;9.156;2024-01-16T08:02:37;-1.40;62.80
8436;DHT22;4255;48.730;9.156;2024-01-16T08:05:03;-1.10;1.00
8436;DHT22;4255;48.730;9.156;2024-01-16T08:07:29;-1.20;1.00
8436;DHT22;4255;48.730;9.156;2024-01-16T08:09:55;-1.30;99.90
8436;DHT22;4255;48.730;9.156;2024-01-16T08:12:21;-1.10;1.00
8436;DHT22;4255;48.730;9.156;2024-01-16T08:14:46;-1.10;99.90
8436;DHT22;4255;48.730;9.156;2024-01-16T08:17:12;-0.90;99.90
8436;DHT22;4255;48.730;9.156;2024-01-16T08:19:38;-1.00;1.00
8436;DHT22;4255;48.730;9.156;2024-01-16T08:22:04;-0.80;1.00
8436;DHT22;4255;48.730;9.156;2024-01-16T08:24:29;-0.80;99.90
8436;DHT22;4255;48.730;9.156;2024-01-16T08:26:55;-0.70;1.00
8436;DHT22;4255;48.730;9.156;2024-01-16T08:29:23;-0.60;99.90
8436;DHT22;4255;48.730;9.156;2024-01-16T08:31:49;-0.50;1.00
8436;DHT22;4255;48.730;9.156;2024-01-16T08:34:15;-0.50;1.00
8436;DHT22;4255;48.730;9.156;2024-01-16T08:36:41;-0.40;99.90
8436;DHT22;4255;48.730;9.156;2024-01-16T08:39:07;-0.10;99.90
8436;DHT22;4255;48.730;9.156;2024-01-16T08:41:32;0.10;1.00
8436;DHT22;4255;48.730;9.156;2024-01-16T08:43:58;-0.10;1.00
8436;DHT22;4255;48.730;9.156;2024-01-16T08:46:24;-0.10;1.00
8436;DHT22;4255;48.730;9.156;2024-01-16T08:48:49;0.10;1.00
8436;DHT22;4255;48.730;9.156;2024-01-16T08:51:15;-0.10;17.90
8436;DHT22;4255;48.730;9.156;2024-01-16T08:53:40;-0.20;99.90
8436;DHT22;4255;48.730;9.156;2024-01-16T08:56:07;-0.20;99.90
8436;DHT22;4255;48.730;9.156;2024-01-16T08:58:34;0.00;1.00
8436;DHT22;4255;48.730;9.156;2024-01-16T09:01:04;0.00;99.90
8436;DHT22;4255;48.730;9.156;2024-01-16T09:03:33;0.20;99.90
8436;DHT22;4255;48.730;9.156;2024-01-16T09:05:59;0.30;99.90
8436;DHT22;4255;48.730;9.156;2024-01-16T09:08:26;0.50;99.90
8436;DHT22;4255;48.730;9.156;2024-01-16T09:10:53;0.60;1.00
8436;DHT22;4255;48.730;9.156;2024-01-16T09:13:19;0.80;1.00
8436;DHT22;4255;48.730;9.156;2024-01-16T09:15:49;0.80;99.90
8436;DHT22;4255;48.730;9.156;2024-01-16T09:18:15;0.80;99.90
8436;DHT22;4255;48.730;9.156;2024-01-16T09:20:42;0.90;99.90
8436;DHT22;4255;48.730;9.156;2024-01-16T09:23:08;1.10;99.90
8436;DHT22;4255;48.730;9.156;2024-01-16T09:25:34;1.20;1.00
8436;DHT22;4255;48.730;9.156;2024-01-16T09:28:00;1.40;1.00
8436;DHT22;4255;48.730;9.156;2024-01-16T09:30:26;1.50;1.00
8436;DHT22;4255;48.730;9.156;2024-01-16T09:32:52;1.50;1.00
8436;DHT22;4255;48.730;9.156;2024-01-16T09:35:17;1.50;1.00
8436;DHT22;4255;48.730;9.156;2024-01-16T09:37:43;1.70;1.00
8436;DHT22;4255;48.730;9.156;2024-01-16T09:40:09;1.70;1.00
8436;DHT22;4255;48.730;9.156;2024-01-16T09:42:35;1.90;99.90
8436;DHT22;4255;48.730;9.156;2024-01-16T09:45:01;2.10;99.90
8436;DHT22;4255;48.730;9.156;2024-01-16T09:47:33;2.10;99.90
8436;DHT22;4255;48.730;9.156;2024-01-16T09:49:59;2.20;99.90
8436;DHT22;4255;48.730;9.156;2024-01-16T09:52:28;2.30;42.80
8436;DHT22;4255;48.730;9.156;2024-01-16T09:54:54;2.50;25.80
8436;DHT22;4255;48.730;9.156;2024-01-16T09:57:24;2.80;1.00
8436;DHT22;4255;48.730;9.156;2024-01-16T09:59:53;2.80;1.00
8436;DHT22;4255;48.730;9.156;2024-01-16T10:02:20;3.10;1.00
8436;DHT22;4255;48.730;9.156;2024-01-16T10:04:49;3.20;1.00
8436;DHT22;4255;48.730;9.156;2024-01-16T10:07:16;3.50;1.00
8436;DHT22;4255;48.730;9.156;2024-01-16T10:09:43;3.60;1.00
8436;DHT22;4255;48.730;9.156;2024-01-16T10:12:09;3.50;1.00
8436;DHT22;4255;48.730;9.156;2024-01-16T10:14:36;3.70;1.00
8436;DHT22;4255;48.730;9.156;2024-01-16T10:17:04;3.60;99.90
8436;DHT22;4255;48.730;9.156;2024-01-16T10:19:52;3.70;99.90
8436;DHT22;4255;48.730;9.156;2024-01-16T10:22:23;4.00;99.90
8436;DHT22;4255;48.730;9.156;2024-01-16T10:25:03;4.10;99.90
8436;DHT22;4255;48.730;9.156;2024-01-16T10:27:29;4.20;99.90
8436;DHT22;4255;48.730;9.156;2024-01-16T10:29:57;4.40;99.90
8436;DHT22;4255;48.730;9.156;2024-01-16T10:32:30;4.50;99.90
8436;DHT22;4255;48.730;9.156;2024-01-16T10:35:13;4.60;99.90
8436;DHT22;4255;48.730;9.156;2024-01-16T10:37:47;4.50;99.90
8436;DHT22;4255;48.730;9.156;2024-01-16T10:40:17;4.70;99.90
8436;DHT22;4255;48.730;9.156;2024-01-16T10:42:45;4.70;99.90
8436;DHT22;4255;48.730;9.156;2024-01-16T10:45:18;4.80;99.90
8436;DHT22;4255;48.730;9.156;2024-01-16T10:47:46;4.70;95.90
8436;DHT22;4255;48.730;9.156;2024-01-16T10:50:12;4.60;91.70
8436;DHT22;4255;48.730;9.156;2024-01-16T10:52:45;4.80;83.80
8436;DHT22;4255;48.730;9.156;2024-01-16T10:55:15;4.90;98.70
8436;DHT22;4255;48.730;9.156;2024-01-16T10:57:43;5.00;91.10
8436;DHT22;4255;48.730;9.156;2024-01-16T11:00:09;5.20;64.50
8436;DHT22;4255;48.730;9.156;2024-01-16T11:02:43;5.30;53.80
8436;DHT22;4255;48.730;9.156;2024-01-16T11:05:15;5.30;18.80
8436;DHT22;4255;48.730;9.156;2024-01-16T11:07:42;4.90;1.00
8436;DHT22;4255;48.730;9.156;2024-01-16T11:10:09;4.80;32.40
8436;DHT22;4255;48.730;9.156;2024-01-16T11:12:37;4.80;59.10
8436;DHT22;4255;48.730;9.156;2024-01-16T11:15:04;4.70;25.30
8436;DHT22;4255;48.730;9.156;2024-01-16T11:17:33;4.70;41.30
8436;DHT22;4255;48.730;9.156;2024-01-16T11:20:02;4.60;33.30
8436;DHT22;4255;48.730;9.156;2024-01-16T11:22:31;4.50;29.20
8436;DHT22;4255;48.730;9.156;2024-01-16T11:25:10;4.30;23.40
8436;DHT22;4255;48.730;9.156;2024-01-16T11:27:40;4.20;23.40
8436;DHT22;4255;48.730;9.156;2024-01-16T11:30:07;4.10;26.80
8436;DHT22;4255;48.730;9.156;2024-01-16T11:32:38;4.00;63.30
8436;DHT22;4255;48.730;9.156;2024-01-16T11:35:06;4.00;73.30
8436;DHT22;4255;48.730;9.156;2024-01-16T11:37:32;4.30;77.70
8436;DHT22;4255;48.730;9.156;2024-01-16T11:42:43;4.40;66.00
8436;DHT22;4255;48.730;9.156;2024-01-16T11:48:13;4.60;26.00
8436;DHT22;4255;48.730;9.156;2024-01-16T11:50:39;4.60;32.20
8436;DHT22;4255;48.730;9.156;2024-01-16T11:53:05;4.70;20.00
8436;DHT22;4255;48.730;9.156;2024-01-16T11:55:35;4.80;14.10
8436;DHT22;4255;48.730;9.156;2024-01-16T12:00:50;4.90;11.30
8436;DHT22;4255;48.730;9.156;2024-01-16T12:03:20;4.70;1.00
8436;DHT22;4255;48.730;9.156;2024-01-16T12:06:04;4.10;1.00
8436;DHT22;4255;48.730;9.156;2024-01-16T12:08:32;4.10;38.30
8436;DHT22;4255;48.730;9.156;2024-01-16T12:10:58;3.90;7.40
8436;DHT22;4255;48.730;9.156;2024-01-16T12:13:25;4.00;15.70
8436;DHT22;4255;48.730;9.156;2024-01-16T12:16:02;4.20;1.00
8436;DHT22;4255;48.730;9.156;2024-01-16T12:18:29;4.60;1.00
8436;DHT22;4255;48.730;9.156;2024-01-16T12:20:55;4.70;1.00
8436;DHT22;4255;48.730;9.156;2024-01-16T12:23:21;4.80;1.00
8436;DHT22;4255;48.730;9.156;2024-01-16T12:25:52;4.60;1.00
8436;DHT22;4255;48.730;9.156;2024-01-16T12:28:20;4.60;1.00
8436;DHT22;4255;48.730;9.156;2024-01-16T12:30:50;4.70;1.00
8436;DHT22;4255;48.730;9.156;2024-01-16T12:33:20;5.00;1.00
8436;DHT22;4255;48.730;9.156;2024-01-16T12:35:46;5.00;1.00
8436;DHT22;4255;48.730;9.156;2024-01-16T12:38:13;5.00;1.00
8436;DHT22;4255;48.730;9.156;2024-01-16T12:40:47;5.00;1.00
8436;DHT22;4255;48.730;9.156;2024-01-16T12:43:13;4.90;1.00
8436;DHT22;4255;48.730;9.156;2024-01-16T12:45:38;5.00;1.00
8436;DHT22;4255;48.730;9.156;2024-01-16T12:48:04;5.00;1.00
8436;DHT22;4255;48.730;9.156;2024-01-16T12:50:31;4.70;1.00
8436;DHT22;4255;48.730;9.156;2024-01-16T12:53:10;4.60;1.00
8436;DHT22;4255;48.730;9.156;2024-01-16T12:55:37;4.70;1.00
8436;DHT22;4255;48.730;9.156;2024-01-16T13:00:47;4.70;1.00
8436;DHT22;4255;48.730;9.156;2024-01-16T13:03:19;4.60;1.00
8436;DHT22;4255;48.730;9.156;2024-01-16T13:05:47;4.70;1.00
8436;DHT22;4255;48.730;9.156;2024-01-16T13:08:19;4.70;1.00
8436;DHT22;4255;48.730;9.156;2024-01-16T13:10:46;4.60;1.00
8436;DHT22;4255;48.730;9.156;2024-01-16T13:13:16;4.40;1.00
8436;DHT22;4255;48.730;9.156;2024-01-16T13:15:43;4.40;1.00
8436;DHT22;4255;48.730;9.156;2024-01-16T13:18:21;4.50;1.00
8436;DHT22;4255;48.730;9.156;2024-01-16T13:20:50;4.80;1.00
8436;DHT22;4255;48.730;9.156;2024-01-16T13:23:16;5.00;1.00
8436;DHT22;4255;48.730;9.156;2024-01-16T13:25:43;5.00;1.00
8436;DHT22;4255;48.730;9.156;2024-01-16T13:28:19;5.00;1.00
8436;DHT22;4255;48.730;9.156;2024-01-16T13:30:46;5.00;1.00
8436;DHT22;4255;48.730;9.156;2024-01-16T13:33:12;5.10;1.00
8436;DHT22;4255;48.730;9.156;2024-01-16T13:35:43;5.10;1.00
8436;DHT22;4255;48.730;9.156;2024-01-16T13:38:09;5.20;1.00
8436;DHT22;4255;48.730;9.156;2024-01-16T13:40:36;5.20;1.00
8436;DHT22;4255;48.730;9.156;2024-01-16T13:43:03;5.30;1.00
8436;DHT22;4255;48.730;9.156;2024-01-16T13:45:29;5.30;1.00
8436;DHT22;4255;48.730;9.156;2024-01-16T13:47:55;5.20;1.00
8436;DHT22;4255;48.730;9.156;2024-01-16T13:50:21;5.10;1.00
8436;DHT22;4255;48.730;9.156;2024-01-16T13:52:47;4.70;1.00
8436;DHT22;4255;48.730;9.156;2024-01-16T13:55:13;4.60;1.00
8436;DHT22;4255;48.730;9.156;2024-01-16T13:57:38;4.70;1.00
8436;DHT22;4255;48.730;9.156;2024-01-16T14:00:06;4.80;1.00
8436;DHT22;4255;48.730;9.156;2024-01-16T14:02:33;4.50;1.00
8436;DHT22;4255;48.730;9.156;2024-01-16T14:05:04;4.30;1.00
8436;DHT22;4255;48.730;9.156;2024-01-16T14:07:31;4.50;1.00
8436;DHT22;4255;48.730;9.156;2024-01-16T14:09:56;4.70;1.00
8436;DHT22;4255;48.730;9.156;2024-01-16T14:12:23;4.60;1.00
8436;DHT22;4255;48.730;9.156;2024-01-16T14:14:50;4.60;1.00
8436;DHT22;4255;48.730;9.156;2024-01-16T14:17:16;4.90;1.00
8436;DHT22;4255;48.730;9.156;2024-01-16T14:19:42;4.90;1.00
8436;DHT22;4255;48.730;9.156;2024-01-16T14:22:08;5.00;1.00
8436;DHT22;4255;48.730;9.156;2024-01-16T14:24:34;5.10;1.00
8436;DHT22;4255;48.730;9.156;2024-01-16T14:26:59;5.20;1.00
8436;DHT22;4255;48.730;9.156;2024-01-16T14:29:25;5.20;1.00
8436;DHT22;4255;48.730;9.156;2024-01-16T14:31:52;5.20;1.00
8436;DHT22;4255;48.730;9.156;2024-01-16T14:34:18;5.10;1.00
8436;DHT22;4255;48.730;9.156;2024-01-16T14:36:44;5.10;1.00
8436;DHT22;4255;48.730;9.156;2024-01-16T14:39:10;5.10;1.00
8436;DHT22;4255;48.730;9.156;2024-01-16T14:41:39;5.10;1.00
8436;DHT22;4255;48.730;9.156;2024-01-16T14:44:08;5.10;1.00
8436;DHT22;4255;48.730;9.156;2024-01-16T14:46:35;5.00;1.00
8436;DHT22;4255;48.730;9.156;2024-01-16T14:49:00;4.90;1.00
8436;DHT22;4255;48.730;9.156;2024-01-16T14:51:27;4.80;1.00
8436;DHT22;4255;48.730;9.156;2024-01-16T14:53:53;4.70;1.00
8436;DHT22;4255;48.730;9.156;2024-01-16T14:56:18;4.80;1.00
8436;DHT22;4255;48.730;9.156;2024-01-16T14:58:45;4.80;1.00
8436;DHT22;4255;48.730;9.156;2024-01-16T15:01:11;4.90;1.00
8436;DHT22;4255;48.730;9.156;2024-01-16T15:03:36;4.80;1.00
8436;DHT22;4255;48.730;9.156;2024-01-16T15:06:02;4.70;1.00
8436;DHT22;4255;48.730;9.156;2024-01-16T15:08:28;4.70;1.00
8436;DHT22;4255;48.730;9.156;2024-01-16T15:10:56;4.50;1.00
8436;DHT22;4255;48.730;9.156;2024-01-16T15:13:22;4.40;1.00
8436;DHT22;4255;48.730;9.156;2024-01-16T15:15:49;4.40;1.00
8436;DHT22;4255;48.730;9.156;2024-01-16T15:18:16;4.30;1.00
8436;DHT22;4255;48.730;9.156;2024-01-16T15:20:42;4.20;1.00
8436;DHT22;4255;48.730;9.156;2024-01-16T15:23:07;4.00;1.00
8436;DHT22;4255;48.730;9.156;2024-01-16T15:25:33;3.90;1.00
8436;DHT22;4255;48.730;9.156;2024-01-16T15:27:58;3.80;1.00
8436;DHT22;4255;48.730;9.156;2024-01-16T15:30:24;3.80;1.00
8436;DHT22;4255;48.730;9.156;2024-01-16T15:32:57;3.70;1.00
8436;DHT22;4255;48.730;9.156;2024-01-16T15:35:22;3.60;1.00
8436;DHT22;4255;48.730;9.156;2024-01-16T15:37:48;3.50;1.00
8436;DHT22;4255;48.730;9.156;2024-01-16T15:40:14;3.30;1.00
8436;DHT22;4255;48.730;9.156;2024-01-16T15:42:41;3.20;1.00
8436;DHT22;4255;48.730;9.156;2024-01-16T15:45:07;3.10;1.00
8436;DHT22;4255;48.730;9.156;2024-01-16T15:47:33;3.10;1.00
8436;DHT22;4255;48.730;9.156;2024-01-16T15:49:59;3.10;1.00
8436;DHT22;4255;48.730;9.156;2024-01-16T15:52:25;3.00;1.00
8436;DHT22;4255;48.730;9.156;2024-01-16T15:54:50;2.90;1.00
8436;DHT22;4255;48.730;9.156;2024-01-16T15:57:16;2.80;1.00
8436;DHT22;4255;48.730;9.156;2024-01-16T15:59:42;2.80;1.00
8436;DHT22;4255;48.730;9.156;2024-01-16T16:02:08;2.70;1.00
8436;DHT22;4255;48.730;9.156;2024-01-16T16:04:36;2.70;1.00
8436;DHT22;4255;48.730;9.156;2024-01-16T16:07:02;2.50;1.00
8436;DHT22;4255;48.730;9.156;2024-01-16T16:09:28;2.50;1.00
8436;DHT22;4255;48.730;9.156;2024-01-16T16:11:54;2.50;4.60
8436;DHT22;4255;48.730;9.156;2024-01-16T16:14:20;2.50;2.90
8436;DHT22;4255;48.730;9.156;2024-01-16T16:16:48;2.50;19.80
8436;DHT22;4255;48.730;9.156;2024-01-16T16:19:14;2.40;27.10
8436;DHT22;4255;48.730;9.156;2024-01-16T16:21:39;2.30;37.40
8436;DHT22;4255;48.730;9.156;2024-01-16T16:24:05;2.20;82.20
8436;DHT22;4255;48.730;9.156;2024-01-16T16:26:34;2.20;99.90
8436;DHT22;4255;48.730;9.156;2024-01-16T16:29:06;2.20;99.90